Santee, South Carolina
Current Conditions -  °F | °C
As of 9:55 PM on Tuesday 21 Oct 2014 (Local Time) from KMNI Reporting Station
Broken Clouds Broken Clouds  
Wind Chill: 61°   Ceiling: 6500
Heat Index: 61°   Visibility: 10mi
Dew Point: 61°   Wind: 0mph
Humidity: 100%   Direction: NA
Pressure: 29.92"   Gusts: NA
Location:  33.48°N, 80.49°W
Report Text: KMNI 220155Z AUTO 00000KT 10SM BKN065 16/16 A2992 RMK AO2
Loading
Personal Weather Stations






























Interactive Weather Map
Tropical Storm Tracking
New forecast layout! Learn more

10-Day Weather Forecast

Advertisements
Track Severe Weather on mobile